sensor_id;sensor_type;location;lat;lon;timestamp;P1;durP1;ratioP1;P2;durP2;ratioP2
4676;SDS011;2352;48.180;11.478;2024-02-23T00:03:51;0.10;;;0.10;;
4676;SDS011;2352;48.180;11.478;2024-02-23T00:08:54;0.10;;;0.10;;
4676;SDS011;2352;48.180;11.478;2024-02-23T00:13:58;0.27;;;0.20;;
4676;SDS011;2352;48.180;11.478;2024-02-23T00:19:01;0.10;;;0.10;;
4676;SDS011;2352;48.180;11.478;2024-02-23T00:24:04;0.10;;;0.10;;
4676;SDS011;2352;48.180;11.478;2024-02-23T00:29:08;0.10;;;0.10;;
4676;SDS011;2352;48.180;11.478;2024-02-23T00:34:11;0.30;;;0.13;;
4676;SDS011;2352;48.180;11.478;2024-02-23T00:39:15;0.93;;;0.10;;
4676;SDS011;2352;48.180;11.478;2024-02-23T00:44:19;0.20;;;0.10;;
4676;SDS011;2352;48.180;11.478;2024-02-23T00:49:22;3.13;;;0.23;;
4676;SDS011;2352;48.180;11.478;2024-02-23T00:54:25;0.20;;;0.20;;
4676;SDS011;2352;48.180;11.478;2024-02-23T00:59:30;0.10;;;0.10;;
4676;SDS011;2352;48.180;11.478;2024-02-23T01:04:33;0.07;;;0.07;;
4676;SDS011;2352;48.180;11.478;2024-02-23T01:09:36;0.23;;;0.20;;
4676;SDS011;2352;48.180;11.478;2024-02-23T01:14:40;0.47;;;0.10;;
4676;SDS011;2352;48.180;11.478;2024-02-23T01:19:43;0.47;;;0.20;;
4676;SDS011;2352;48.180;11.478;2024-02-23T01:24:46;0.10;;;0.10;;
4676;SDS011;2352;48.180;11.478;2024-02-23T01:29:51;0.23;;;0.23;;
4676;SDS011;2352;48.180;11.478;2024-02-23T01:34:53;0.10;;;0.10;;
4676;SDS011;2352;48.180;11.478;2024-02-23T01:39:57;0.20;;;0.10;;
4676;SDS011;2352;48.180;11.478;2024-02-23T01:45:02;0.17;;;0.17;;
4676;SDS011;2352;48.180;11.478;2024-02-23T01:50:05;0.10;;;0.10;;
4676;SDS011;2352;48.180;11.478;2024-02-23T01:55:10;0.17;;;0.13;;
4676;SDS011;2352;48.180;11.478;2024-02-23T02:00:15;0.10;;;0.10;;
4676;SDS011;2352;48.180;11.478;2024-02-23T02:05:19;0.10;;;0.10;;
4676;SDS011;2352;48.180;11.478;2024-02-23T02:10:22;0.10;;;0.10;;
4676;SDS011;2352;48.180;11.478;2024-02-23T02:15:26;0.10;;;0.10;;
4676;SDS011;2352;48.180;11.478;2024-02-23T02:20:30;0.10;;;0.10;;
4676;SDS011;2352;48.180;11.478;2024-02-23T02:25:35;0.10;;;0.10;;
4676;SDS011;2352;48.180;11.478;2024-02-23T02:30:40;0.10;;;0.10;;
4676;SDS011;2352;48.180;11.478;2024-02-23T02:35:42;0.47;;;0.10;;
4676;SDS011;2352;48.180;11.478;2024-02-23T02:40:45;0.10;;;0.10;;
4676;SDS011;2352;48.180;11.478;2024-02-23T02:45:50;0.10;;;0.10;;
4676;SDS011;2352;48.180;11.478;2024-02-23T02:50:53;0.10;;;0.10;;
4676;SDS011;2352;48.180;11.478;2024-02-23T02:55:55;0.10;;;0.10;;
4676;SDS011;2352;48.180;11.478;2024-02-23T03:01:00;0.20;;;0.20;;
4676;SDS011;2352;48.180;11.478;2024-02-23T03:06:03;0.17;;;0.17;;
4676;SDS011;2352;48.180;11.478;2024-02-23T03:11:06;0.10;;;0.10;;
4676;SDS011;2352;48.180;11.478;2024-02-23T03:16:15;0.20;;;0.20;;
4676;SDS011;2352;48.180;11.478;2024-02-23T03:21:19;0.33;;;0.10;;
4676;SDS011;2352;48.180;11.478;2024-02-23T03:26:22;0.20;;;0.20;;
4676;SDS011;2352;48.180;11.478;2024-02-23T03:31:26;0.10;;;0.10;;
4676;SDS011;2352;48.180;11.478;2024-02-23T03:36:30;0.63;;;0.20;;
4676;SDS011;2352;48.180;11.478;2024-02-23T03:41:33;0.10;;;0.10;;
4676;SDS011;2352;48.180;11.478;2024-02-23T03:46:37;0.10;;;0.10;;
4676;SDS011;2352;48.180;11.478;2024-02-23T03:51:40;0.83;;;0.30;;
4676;SDS011;2352;48.180;11.478;2024-02-23T03:56:43;0.20;;;0.20;;
4676;SDS011;2352;48.180;11.478;2024-02-23T04:01:47;0.27;;;0.20;;
4676;SDS011;2352;48.180;11.478;2024-02-23T04:06:50;0.43;;;0.40;;
4676;SDS011;2352;48.180;11.478;2024-02-23T04:11:53;0.83;;;0.30;;
4676;SDS011;2352;48.180;11.478;2024-02-23T04:16:57;0.20;;;0.20;;
4676;SDS011;2352;48.180;11.478;2024-02-23T04:22:00;0.40;;;0.10;;
4676;SDS011;2352;48.180;11.478;2024-02-23T04:27:04;1.37;;;0.23;;
4676;SDS011;2352;48.180;11.478;2024-02-23T04:32:08;0.20;;;0.20;;
4676;SDS011;2352;48.180;11.478;2024-02-23T04:37:11;2.70;;;0.20;;
4676;SDS011;2352;48.180;11.478;2024-02-23T04:42:14;0.20;;;0.20;;
4676;SDS011;2352;48.180;11.478;2024-02-23T04:47:18;0.30;;;0.30;;
4676;SDS011;2352;48.180;11.478;2024-02-23T04:52:21;0.60;;;0.20;;
4676;SDS011;2352;48.180;11.478;2024-02-23T04:57:24;0.10;;;0.10;;
4676;SDS011;2352;48.180;11.478;2024-02-23T05:02:28;0.20;;;0.20;;
4676;SDS011;2352;48.180;11.478;2024-02-23T05:07:36;0.30;;;0.30;;
4676;SDS011;2352;48.180;11.478;2024-02-23T05:12:39;0.20;;;0.20;;
4676;SDS011;2352;48.180;11.478;2024-02-23T05:17:43;0.60;;;0.50;;
4676;SDS011;2352;48.180;11.478;2024-02-23T05:22:47;0.40;;;0.20;;
4676;SDS011;2352;48.180;11.478;2024-02-23T05:27:50;0.20;;;0.20;;
4676;SDS011;2352;48.180;11.478;2024-02-23T05:32:54;0.23;;;0.23;;
4676;SDS011;2352;48.180;11.478;2024-02-23T05:37:58;0.37;;;0.37;;
4676;SDS011;2352;48.180;11.478;2024-02-23T05:43:01;3.00;;;0.60;;
4676;SDS011;2352;48.180;11.478;2024-02-23T05:48:06;0.43;;;0.37;;
4676;SDS011;2352;48.180;11.478;2024-02-23T05:53:09;1.60;;;0.50;;
4676;SDS011;2352;48.180;11.478;2024-02-23T05:58:12;0.50;;;0.40;;
4676;SDS011;2352;48.180;11.478;2024-02-23T06:03:19;0.50;;;0.50;;
4676;SDS011;2352;48.180;11.478;2024-02-23T06:08:22;0.57;;;0.50;;
4676;SDS011;2352;48.180;11.478;2024-02-23T06:13:25;2.33;;;0.77;;
4676;SDS011;2352;48.180;11.478;2024-02-23T06:18:29;0.53;;;0.40;;
4676;SDS011;2352;48.180;11.478;2024-02-23T06:23:32;0.53;;;0.50;;
4676;SDS011;2352;48.180;11.478;2024-02-23T06:28:35;1.00;;;0.40;;
4676;SDS011;2352;48.180;11.478;2024-02-23T06:33:41;0.83;;;0.57;;
4676;SDS011;2352;48.180;11.478;2024-02-23T06:38:44;0.30;;;0.30;;
4676;SDS011;2352;48.180;11.478;2024-02-23T06:43:47;0.93;;;0.40;;
4676;SDS011;2352;48.180;11.478;2024-02-23T06:48:51;1.63;;;0.30;;
4676;SDS011;2352;48.180;11.478;2024-02-23T06:53:54;0.40;;;0.40;;
4676;SDS011;2352;48.180;11.478;2024-02-23T06:58:58;0.40;;;0.40;;
4676;SDS011;2352;48.180;11.478;2024-02-23T07:04:02;0.23;;;0.23;;
4676;SDS011;2352;48.180;11.478;2024-02-23T07:09:05;1.60;;;0.43;;
4676;SDS011;2352;48.180;11.478;2024-02-23T07:14:09;2.63;;;0.40;;
4676;SDS011;2352;48.180;11.478;2024-02-23T07:19:15;0.40;;;0.30;;
4676;SDS011;2352;48.180;11.478;2024-02-23T07:24:18;0.33;;;0.30;;
4676;SDS011;2352;48.180;11.478;2024-02-23T07:29:21;1.93;;;0.47;;
4676;SDS011;2352;48.180;11.478;2024-02-23T07:34:26;0.40;;;0.40;;
4676;SDS011;2352;48.180;11.478;2024-02-23T07:39:29;2.03;;;0.60;;
4676;SDS011;2352;48.180;11.478;2024-02-23T07:44:32;0.60;;;0.60;;
4676;SDS011;2352;48.180;11.478;2024-02-23T07:49:36;0.63;;;0.60;;
4676;SDS011;2352;48.180;11.478;2024-02-23T07:54:42;2.30;;;0.53;;
4676;SDS011;2352;48.180;11.478;2024-02-23T07:59:44;0.47;;;0.47;;
4676;SDS011;2352;48.180;11.478;2024-02-23T08:04:49;1.03;;;0.57;;
4676;SDS011;2352;48.180;11.478;2024-02-23T08:09:53;1.53;;;0.90;;
4676;SDS011;2352;48.180;11.478;2024-02-23T08:14:56;1.50;;;0.53;;
4676;SDS011;2352;48.180;11.478;2024-02-23T08:20:01;1.67;;;0.70;;
4676;SDS011;2352;48.180;11.478;2024-02-23T08:25:05;0.70;;;0.50;;
4676;SDS011;2352;48.180;11.478;2024-02-23T08:30:10;1.00;;;0.73;;
4676;SDS011;2352;48.180;11.478;2024-02-23T08:35:16;0.60;;;0.40;;
4676;SDS011;2352;48.180;11.478;2024-02-23T08:40:20;3.73;;;1.43;;
4676;SDS011;2352;48.180;11.478;2024-02-23T08:45:23;0.80;;;0.80;;
4676;SDS011;2352;48.180;11.478;2024-02-23T08:50:27;0.90;;;0.63;;
4676;SDS011;2352;48.180;11.478;2024-02-23T08:55:30;1.27;;;0.70;;
4676;SDS011;2352;48.180;11.478;2024-02-23T09:00:34;1.20;;;0.80;;
4676;SDS011;2352;48.180;11.478;2024-02-23T09:05:39;2.50;;;0.80;;
4676;SDS011;2352;48.180;11.478;2024-02-23T09:10:42;1.33;;;0.90;;
4676;SDS011;2352;48.180;11.478;2024-02-23T09:15:45;1.43;;;1.00;;
4676;SDS011;2352;48.180;11.478;2024-02-23T09:20:49;2.50;;;0.80;;
4676;SDS011;2352;48.180;11.478;2024-02-23T09:25:53;1.87;;;0.87;;
4676;SDS011;2352;48.180;11.478;2024-02-23T09:30:56;0.70;;;0.53;;
4676;SDS011;2352;48.180;11.478;2024-02-23T09:36:00;2.63;;;0.70;;
4676;SDS011;2352;48.180;11.478;2024-02-23T09:41:03;1.03;;;0.60;;
4676;SDS011;2352;48.180;11.478;2024-02-23T09:46:07;1.43;;;1.00;;
4676;SDS011;2352;48.180;11.478;2024-02-23T09:51:12;1.23;;;0.53;;
4676;SDS011;2352;48.180;11.478;2024-02-23T09:56:16;0.50;;;0.43;;
4676;SDS011;2352;48.180;11.478;2024-02-23T10:01:24;3.10;;;0.67;;
4676;SDS011;2352;48.180;11.478;2024-02-23T10:06:31;1.53;;;0.77;;
4676;SDS011;2352;48.180;11.478;2024-02-23T10:11:34;0.77;;;0.50;;
4676;SDS011;2352;48.180;11.478;2024-02-23T10:16:37;2.03;;;0.80;;
4676;SDS011;2352;48.180;11.478;2024-02-23T10:21:41;1.90;;;0.90;;
4676;SDS011;2352;48.180;11.478;2024-02-23T10:26:44;0.93;;;0.50;;
4676;SDS011;2352;48.180;11.478;2024-02-23T10:31:47;1.57;;;0.57;;
4676;SDS011;2352;48.180;11.478;2024-02-23T10:36:53;0.57;;;0.57;;
4676;SDS011;2352;48.180;11.478;2024-02-23T10:41:57;0.87;;;0.70;;
4676;SDS011;2352;48.180;11.478;2024-02-23T10:47:05;2.10;;;1.10;;
4676;SDS011;2352;48.180;11.478;2024-02-23T10:52:11;3.93;;;1.00;;
4676;SDS011;2352;48.180;11.478;2024-02-23T10:57:16;7.50;;;0.87;;
4676;SDS011;2352;48.180;11.478;2024-02-23T11:02:20;0.80;;;0.57;;
4676;SDS011;2352;48.180;11.478;2024-02-23T11:07:29;1.93;;;0.80;;
4676;SDS011;2352;48.180;11.478;2024-02-23T11:12:33;1.70;;;0.87;;
4676;SDS011;2352;48.180;11.478;2024-02-23T11:17:38;2.23;;;0.63;;
4676;SDS011;2352;48.180;11.478;2024-02-23T11:22:42;0.73;;;0.67;;
4676;SDS011;2352;48.180;11.478;2024-02-23T11:27:48;1.13;;;0.60;;
4676;SDS011;2352;48.180;11.478;2024-02-23T11:32:52;1.20;;;0.30;;
4676;SDS011;2352;48.180;11.478;2024-02-23T11:38:03;4.77;;;0.57;;
4676;SDS011;2352;48.180;11.478;2024-02-23T11:43:08;2.37;;;0.60;;
4676;SDS011;2352;48.180;11.478;2024-02-23T11:48:12;0.80;;;0.50;;
4676;SDS011;2352;48.180;11.478;2024-02-23T11:53:17;2.03;;;0.77;;
4676;SDS011;2352;48.180;11.478;2024-02-23T11:58:22;2.00;;;0.60;;
4676;SDS011;2352;48.180;11.478;2024-02-23T12:03:25;2.03;;;0.70;;
4676;SDS011;2352;48.180;11.478;2024-02-23T12:08:30;0.60;;;0.30;;
4676;SDS011;2352;48.180;11.478;2024-02-23T12:13:39;0.60;;;0.47;;
4676;SDS011;2352;48.180;11.478;2024-02-23T12:18:42;0.87;;;0.50;;
4676;SDS011;2352;48.180;11.478;2024-02-23T12:23:48;0.97;;;0.60;;
4676;SDS011;2352;48.180;11.478;2024-02-23T12:28:51;0.70;;;0.37;;
4676;SDS011;2352;48.180;11.478;2024-02-23T12:33:56;0.20;;;0.20;;
4676;SDS011;2352;48.180;11.478;2024-02-23T12:39:01;0.70;;;0.50;;
4676;SDS011;2352;48.180;11.478;2024-02-23T12:44:04;1.97;;;0.40;;
4676;SDS011;2352;48.180;11.478;2024-02-23T12:49:07;0.50;;;0.50;;
4676;SDS011;2352;48.180;11.478;2024-02-23T12:54:12;0.70;;;0.37;;
4676;SDS011;2352;48.180;11.478;2024-02-23T12:59:15;0.70;;;0.40;;
4676;SDS011;2352;48.180;11.478;2024-02-23T13:04:19;0.70;;;0.30;;
4676;SDS011;2352;48.180;11.478;2024-02-23T13:09:23;1.03;;;0.53;;
4676;SDS011;2352;48.180;11.478;2024-02-23T13:14:26;3.03;;;0.70;;
4676;SDS011;2352;48.180;11.478;2024-02-23T13:19:29;0.83;;;0.47;;
4676;SDS011;2352;48.180;11.478;2024-02-23T13:24:33;1.23;;;0.40;;
4676;SDS011;2352;48.180;11.478;2024-02-23T13:29:36;1.13;;;0.70;;
4676;SDS011;2352;48.180;11.478;2024-02-23T13:34:39;1.43;;;0.70;;
4676;SDS011;2352;48.180;11.478;2024-02-23T13:39:44;0.50;;;0.50;;
4676;SDS011;2352;48.180;11.478;2024-02-23T13:44:47;2.70;;;0.53;;
4676;SDS011;2352;48.180;11.478;2024-02-23T13:49:50;0.50;;;0.47;;
4676;SDS011;2352;48.180;11.478;2024-02-23T13:54:54;0.40;;;0.40;;
4676;SDS011;2352;48.180;11.478;2024-02-23T13:59:57;1.10;;;0.40;;
4676;SDS011;2352;48.180;11.478;2024-02-23T14:05:00;0.87;;;0.40;;
4676;SDS011;2352;48.180;11.478;2024-02-23T14:10:07;2.10;;;0.30;;
4676;SDS011;2352;48.180;11.478;2024-02-23T14:15:10;0.47;;;0.47;;
4676;SDS011;2352;48.180;11.478;2024-02-23T14:20:14;0.60;;;0.33;;
4676;SDS011;2352;48.180;11.478;2024-02-23T14:25:18;1.13;;;0.40;;
4676;SDS011;2352;48.180;11.478;2024-02-23T14:30:21;0.30;;;0.30;;
4676;SDS011;2352;48.180;11.478;2024-02-23T14:35:24;0.97;;;0.60;;
4676;SDS011;2352;48.180;11.478;2024-02-23T14:40:28;2.10;;;0.40;;
4676;SDS011;2352;48.180;11.478;2024-02-23T14:45:31;0.60;;;0.50;;
4676;SDS011;2352;48.180;11.478;2024-02-23T14:50:34;2.30;;;0.87;;
4676;SDS011;2352;48.180;11.478;2024-02-23T14:55:39;0.83;;;0.40;;
4676;SDS011;2352;48.180;11.478;2024-02-23T15:00:41;1.07;;;0.93;;
4676;SDS011;2352;48.180;11.478;2024-02-23T15:05:44;1.00;;;0.50;;
4676;SDS011;2352;48.180;11.478;2024-02-23T15:10:49;1.20;;;0.60;;
4676;SDS011;2352;48.180;11.478;2024-02-23T15:15:53;0.40;;;0.40;;
4676;SDS011;2352;48.180;11.478;2024-02-23T15:20:57;0.97;;;0.60;;
4676;SDS011;2352;48.180;11.478;2024-02-23T15:26:02;0.77;;;0.30;;
4676;SDS011;2352;48.180;11.478;2024-02-23T15:31:12;1.30;;;0.50;;
4676;SDS011;2352;48.180;11.478;2024-02-23T15:36:15;0.87;;;0.60;;
4676;SDS011;2352;48.180;11.478;2024-02-23T15:41:19;2.67;;;0.97;;
4676;SDS011;2352;48.180;11.478;2024-02-23T15:46:23;0.40;;;0.40;;
4676;SDS011;2352;48.180;11.478;2024-02-23T15:51:27;1.23;;;0.57;;
4676;SDS011;2352;48.180;11.478;2024-02-23T15:56:53;0.90;;;0.50;;
4676;SDS011;2352;48.180;11.478;2024-02-23T16:01:56;0.47;;;0.47;;
4676;SDS011;2352;48.180;11.478;2024-02-23T16:07:04;2.00;;;0.40;;
4676;SDS011;2352;48.180;11.478;2024-02-23T16:12:09;0.87;;;0.70;;
4676;SDS011;2352;48.180;11.478;2024-02-23T16:17:13;0.50;;;0.50;;
4676;SDS011;2352;48.180;11.478;2024-02-23T16:22:16;0.83;;;0.77;;
4676;SDS011;2352;48.180;11.478;2024-02-23T16:27:21;2.10;;;2.00;;
4676;SDS011;2352;48.180;11.478;2024-02-23T16:32:24;0.83;;;0.70;;
4676;SDS011;2352;48.180;11.478;2024-02-23T16:37:27;0.50;;;0.50;;
4676;SDS011;2352;48.180;11.478;2024-02-23T16:42:33;0.50;;;0.50;;
4676;SDS011;2352;48.180;11.478;2024-02-23T16:47:36;1.13;;;0.40;;
4676;SDS011;2352;48.180;11.478;2024-02-23T16:52:39;5.73;;;0.47;;
4676;SDS011;2352;48.180;11.478;2024-02-23T16:57:44;0.40;;;0.40;;
4676;SDS011;2352;48.180;11.478;2024-02-23T17:02:46;0.63;;;0.63;;
4676;SDS011;2352;48.180;11.478;2024-02-23T17:07:49;0.57;;;0.50;;
4676;SDS011;2352;48.180;11.478;2024-02-23T17:12:54;0.47;;;0.47;;
4676;SDS011;2352;48.180;11.478;2024-02-23T17:17:57;1.23;;;0.70;;
4676;SDS011;2352;48.180;11.478;2024-02-23T17:23:00;2.63;;;1.07;;
4676;SDS011;2352;48.180;11.478;2024-02-23T17:28:05;0.83;;;0.70;;
4676;SDS011;2352;48.180;11.478;2024-02-23T17:33:08;0.40;;;0.40;;
4676;SDS011;2352;48.180;11.478;2024-02-23T17:38:11;0.43;;;0.40;;
4676;SDS011;2352;48.180;11.478;2024-02-23T17:43:15;0.50;;;0.50;;
4676;SDS011;2352;48.180;11.478;2024-02-23T17:48:18;0.63;;;0.57;;
4676;SDS011;2352;48.180;11.478;2024-02-23T17:53:21;2.47;;;0.50;;
4676;SDS011;2352;48.180;11.478;2024-02-23T17:58:25;0.83;;;0.80;;
4676;SDS011;2352;48.180;11.478;2024-02-23T18:03:28;1.73;;;0.80;;
4676;SDS011;2352;48.180;11.478;2024-02-23T18:08:31;2.40;;;1.73;;
4676;SDS011;2352;48.180;11.478;2024-02-23T18:13:39;0.77;;;0.70;;
4676;SDS011;2352;48.180;11.478;2024-02-23T18:18:43;0.90;;;0.73;;
4676;SDS011;2352;48.180;11.478;2024-02-23T18:23:46;1.20;;;0.87;;
4676;SDS011;2352;48.180;11.478;2024-02-23T18:28:51;0.80;;;0.70;;
4676;SDS011;2352;48.180;11.478;2024-02-23T18:33:53;0.80;;;0.53;;
4676;SDS011;2352;48.180;11.478;2024-02-23T18:38:57;1.57;;;0.53;;
4676;SDS011;2352;48.180;11.478;2024-02-23T18:44:02;0.77;;;0.77;;
4676;SDS011;2352;48.180;11.478;2024-02-23T18:49:05;1.73;;;1.63;;
4676;SDS011;2352;48.180;11.478;2024-02-23T18:54:09;0.90;;;0.90;;
4676;SDS011;2352;48.180;11.478;2024-02-23T18:59:13;0.60;;;0.60;;
4676;SDS011;2352;48.180;11.478;2024-02-23T19:04:16;0.93;;;0.83;;
4676;SDS011;2352;48.180;11.478;2024-02-23T19:09:19;1.87;;;1.77;;
4676;SDS011;2352;48.180;11.478;2024-02-23T19:14:24;1.83;;;1.20;;
4676;SDS011;2352;48.180;11.478;2024-02-23T19:19:28;0.90;;;0.90;;
4676;SDS011;2352;48.180;11.478;2024-02-23T19:24:30;2.00;;;1.10;;
4676;SDS011;2352;48.180;11.478;2024-02-23T19:29:35;0.93;;;0.83;;
4676;SDS011;2352;48.180;11.478;2024-02-23T19:34:38;1.20;;;1.00;;
4676;SDS011;2352;48.180;11.478;2024-02-23T19:39:41;1.10;;;0.70;;
4676;SDS011;2352;48.180;11.478;2024-02-23T19:44:45;1.10;;;1.00;;
4676;SDS011;2352;48.180;11.478;2024-02-23T19:49:48;0.93;;;0.83;;
4676;SDS011;2352;48.180;11.478;2024-02-23T19:54:51;1.33;;;1.17;;
4676;SDS011;2352;48.180;11.478;2024-02-23T19:59:55;2.13;;;1.30;;
4676;SDS011;2352;48.180;11.478;2024-02-23T20:05:00;1.17;;;1.07;;
4676;SDS011;2352;48.180;11.478;2024-02-23T20:10:03;1.27;;;1.17;;
4676;SDS011;2352;48.180;11.478;2024-02-23T20:15:09;2.27;;;1.97;;
4676;SDS011;2352;48.180;11.478;2024-02-23T20:20:12;1.80;;;1.70;;
4676;SDS011;2352;48.180;11.478;2024-02-23T20:25:15;2.03;;;1.83;;
4676;SDS011;2352;48.180;11.478;2024-02-23T20:30:20;1.67;;;1.57;;
4676;SDS011;2352;48.180;11.478;2024-02-23T20:35:23;1.70;;;1.60;;
4676;SDS011;2352;48.180;11.478;2024-02-23T20:40:26;1.33;;;1.23;;
4676;SDS011;2352;48.180;11.478;2024-02-23T20:45:30;1.43;;;1.33;;
4676;SDS011;2352;48.180;11.478;2024-02-23T20:50:33;1.50;;;1.40;;
4676;SDS011;2352;48.180;11.478;2024-02-23T20:55:36;2.17;;;1.40;;
4676;SDS011;2352;48.180;11.478;2024-02-23T21:00:41;1.47;;;1.37;;
4676;SDS011;2352;48.180;11.478;2024-02-23T21:05:44;1.47;;;1.37;;
4676;SDS011;2352;48.180;11.478;2024-02-23T21:10:47;2.03;;;1.93;;
4676;SDS011;2352;48.180;11.478;2024-02-23T21:15:51;2.10;;;1.53;;
4676;SDS011;2352;48.180;11.478;2024-02-23T21:20:57;1.30;;;1.20;;
4676;SDS011;2352;48.180;11.478;2024-02-23T21:26:00;1.57;;;1.47;;
4676;SDS011;2352;48.180;11.478;2024-02-23T21:31:04;1.40;;;1.30;;
4676;SDS011;2352;48.180;11.478;2024-02-23T21:36:07;1.50;;;1.40;;
4676;SDS011;2352;48.180;11.478;2024-02-23T21:41:10;1.60;;;1.50;;
4676;SDS011;2352;48.180;11.478;2024-02-23T21:46:14;8.57;;;1.50;;
4676;SDS011;2352;48.180;11.478;2024-02-23T21:51:17;2.20;;;1.13;;
4676;SDS011;2352;48.180;11.478;2024-02-23T21:56:20;1.87;;;1.60;;
4676;SDS011;2352;48.180;11.478;2024-02-23T22:01:24;2.20;;;2.00;;
4676;SDS011;2352;48.180;11.478;2024-02-23T22:06:27;1.77;;;1.67;;
4676;SDS011;2352;48.180;11.478;2024-02-23T22:11:30;1.83;;;1.73;;
4676;SDS011;2352;48.180;11.478;2024-02-23T22:16:35;3.93;;;1.50;;
4676;SDS011;2352;48.180;11.478;2024-02-23T22:21:40;1.40;;;1.40;;
4676;SDS011;2352;48.180;11.478;2024-02-23T22:26:43;1.70;;;1.60;;
4676;SDS011;2352;48.180;11.478;2024-02-23T22:31:48;1.73;;;1.63;;
4676;SDS011;2352;48.180;11.478;2024-02-23T22:36:52;1.70;;;1.40;;
4676;SDS011;2352;48.180;11.478;2024-02-23T22:41:55;1.70;;;1.60;;
4676;SDS011;2352;48.180;11.478;2024-02-23T22:46:59;1.80;;;1.70;;
4676;SDS011;2352;48.180;11.478;2024-02-23T22:52:03;3.07;;;2.87;;
4676;SDS011;2352;48.180;11.478;2024-02-23T22:57:06;2.17;;;2.07;;
4676;SDS011;2352;48.180;11.478;2024-02-23T23:02:10;2.43;;;2.23;;
4676;SDS011;2352;48.180;11.478;2024-02-23T23:07:14;3.03;;;1.50;;
4676;SDS011;2352;48.180;11.478;2024-02-23T23:12:17;2.00;;;1.50;;
4676;SDS011;2352;48.180;11.478;2024-02-23T23:17:21;1.53;;;1.43;;
4676;SDS011;2352;48.180;11.478;2024-02-23T23:22:24;1.90;;;1.70;;
4676;SDS011;2352;48.180;11.478;2024-02-23T23:27:27;1.77;;;1.67;;
4676;SDS011;2352;48.180;11.478;2024-02-23T23:32:31;2.77;;;1.70;;
4676;SDS011;2352;48.180;11.478;2024-02-23T23:37:35;1.90;;;1.80;;
4676;SDS011;2352;48.180;11.478;2024-02-23T23:42:38;1.93;;;1.67;;
4676;SDS011;2352;48.180;11.478;2024-02-23T23:47:42;1.63;;;1.53;;
4676;SDS011;2352;48.180;11.478;2024-02-23T23:52:45;2.07;;;1.97;;
4676;SDS011;2352;48.180;11.478;2024-02-23T23:57:48;3.17;;;2.50;;
